sensor_id;sensor_type;location;lat;lon;timestamp;pressure;altitude;pressure_sealevel;temperature;humidity
62712;BME280;48772;55.586;37.730;2022-11-14T00:00:52;99697.78;;;2.25;100.00
62712;BME280;48772;55.586;37.730;2022-11-14T00:03:37;99713.00;;;2.18;100.00
62712;BME280;48772;55.586;37.730;2022-11-14T00:06:21;99695.78;;;2.11;100.00
62712;BME280;48772;55.586;37.730;2022-11-14T00:09:05;99699.72;;;2.21;100.00
62712;BME280;48772;55.586;37.730;2022-11-14T00:11:49;99715.84;;;2.32;100.00
62712;BME280;48772;55.586;37.730;2022-11-14T00:14:33;99709.03;;;2.28;100.00
62712;BME280;48772;55.586;37.730;2022-11-14T00:17:17;99700.19;;;2.29;100.00
62712;BME280;48772;55.586;37.730;2022-11-14T00:20:03;99713.78;;;2.39;100.00
62712;BME280;48772;55.586;37.730;2022-11-14T00:22:48;99699.94;;;2.35;100.00
62712;BME280;48772;55.586;37.730;2022-11-14T00:25:32;99712.00;;;2.39;100.00
62712;BME280;48772;55.586;37.730;2022-11-14T00:28:16;99712.22;;;2.35;100.00
62712;BME280;48772;55.586;37.730;2022-11-14T00:31:00;99709.19;;;2.44;100.00
62712;BME280;48772;55.586;37.730;2022-11-14T00:33:45;99703.06;;;2.43;100.00
62712;BME280;48772;55.586;37.730;2022-11-14T00:36:29;99704.81;;;2.43;100.00
62712;BME280;48772;55.586;37.730;2022-11-14T00:39:13;99707.41;;;2.26;100.00
62712;BME280;48772;55.586;37.730;2022-11-14T00:41:59;99705.47;;;2.29;100.00
62712;BME280;48772;55.586;37.730;2022-11-14T00:44:43;99710.44;;;2.35;100.00
62712;BME280;48772;55.586;37.730;2022-11-14T00:47:31;99711.22;;;2.37;100.00
62712;BME280;48772;55.586;37.730;2022-11-14T00:50:16;99716.34;;;2.40;100.00
62712;BME280;48772;55.586;37.730;2022-11-14T00:53:01;99684.69;;;2.23;100.00
62712;BME280;48772;55.586;37.730;2022-11-14T00:55:45;99703.69;;;2.30;100.00
62712;BME280;48772;55.586;37.730;2022-11-14T00:58:30;99729.22;;;2.46;100.00
62712;BME280;48772;55.586;37.730;2022-11-14T01:01:15;99737.81;;;2.50;100.00
62712;BME280;48772;55.586;37.730;2022-11-14T01:03:59;99724.38;;;2.37;100.00
62712;BME280;48772;55.586;37.730;2022-11-14T01:06:43;99732.94;;;2.42;100.00
62712;BME280;48772;55.586;37.730;2022-11-14T01:09:27;99729.78;;;2.34;100.00
62712;BME280;48772;55.586;37.730;2022-11-14T01:12:11;99738.75;;;2.49;100.00
62712;BME280;48772;55.586;37.730;2022-11-14T01:14:56;99733.69;;;2.44;100.00
62712;BME280;48772;55.586;37.730;2022-11-14T01:17:40;99724.97;;;2.44;100.00
62712;BME280;48772;55.586;37.730;2022-11-14T01:20:25;99737.47;;;2.57;100.00
62712;BME280;48772;55.586;37.730;2022-11-14T01:23:10;99740.38;;;2.51;100.00
62712;BME280;48772;55.586;37.730;2022-11-14T01:26:03;99733.56;;;2.47;100.00
62712;BME280;48772;55.586;37.730;2022-11-14T01:28:47;99743.00;;;2.51;100.00
62712;BME280;48772;55.586;37.730;2022-11-14T01:31:32;99738.97;;;2.44;100.00
62712;BME280;48772;55.586;37.730;2022-11-14T01:34:16;99738.13;;;2.44;100.00
62712;BME280;48772;55.586;37.730;2022-11-14T01:37:01;99747.78;;;2.43;100.00
62712;BME280;48772;55.586;37.730;2022-11-14T01:39:45;99718.81;;;2.25;100.00
62712;BME280;48772;55.586;37.730;2022-11-14T01:42:30;99734.19;;;2.34;100.00
62712;BME280;48772;55.586;37.730;2022-11-14T01:48:41;99742.84;;;2.36;100.00
62712;BME280;48772;55.586;37.730;2022-11-14T01:51:34;99744.16;;;2.27;100.00
62712;BME280;48772;55.586;37.730;2022-11-14T01:54:25;99745.72;;;2.31;100.00
62712;BME280;48772;55.586;37.730;2022-11-14T01:57:11;99725.38;;;2.16;100.00
62712;BME280;48772;55.586;37.730;2022-11-14T02:00:02;99759.63;;;2.33;100.00
62712;BME280;48772;55.586;37.730;2022-11-14T02:02:49;99766.41;;;2.39;100.00
62712;BME280;48772;55.586;37.730;2022-11-14T02:05:33;99770.66;;;2.41;100.00
62712;BME280;48772;55.586;37.730;2022-11-14T02:08:19;99770.59;;;2.43;100.00
62712;BME280;48772;55.586;37.730;2022-11-14T02:11:04;99782.56;;;2.50;100.00
62712;BME280;48772;55.586;37.730;2022-11-14T02:13:49;99778.84;;;2.54;100.00
62712;BME280;48772;55.586;37.730;2022-11-14T02:16:54;99784.84;;;2.57;100.00
62712;BME280;48772;55.586;37.730;2022-11-14T02:19:46;99785.31;;;2.47;100.00
62712;BME280;48772;55.586;37.730;2022-11-14T02:22:31;99742.50;;;2.25;100.00
62712;BME280;48772;55.586;37.730;2022-11-14T02:25:16;99788.44;;;2.36;100.00
62712;BME280;48772;55.586;37.730;2022-11-14T02:28:03;99791.34;;;2.30;100.00
62712;BME280;48772;55.586;37.730;2022-11-14T02:30:48;99803.59;;;2.31;100.00
62712;BME280;48772;55.586;37.730;2022-11-14T02:33:32;99807.13;;;2.30;100.00
62712;BME280;48772;55.586;37.730;2022-11-14T02:36:17;99813.69;;;2.22;100.00
62712;BME280;48772;55.586;37.730;2022-11-14T02:39:02;99800.84;;;2.14;100.00
62712;BME280;48772;55.586;37.730;2022-11-14T02:41:46;99794.94;;;2.09;100.00
62712;BME280;48772;55.586;37.730;2022-11-14T02:44:30;99791.94;;;1.98;100.00
62712;BME280;48772;55.586;37.730;2022-11-14T02:47:15;99809.53;;;1.96;100.00
62712;BME280;48772;55.586;37.730;2022-11-14T02:49:59;99826.31;;;1.94;100.00
62712;BME280;48772;55.586;37.730;2022-11-14T02:52:43;99809.72;;;1.92;100.00
62712;BME280;48772;55.586;37.730;2022-11-14T02:55:28;99822.22;;;1.87;100.00
62712;BME280;48772;55.586;37.730;2022-11-14T02:58:12;99830.41;;;1.79;100.00
62712;BME280;48772;55.586;37.730;2022-11-14T03:00:57;99792.69;;;1.60;100.00
62712;BME280;48772;55.586;37.730;2022-11-14T03:03:41;99832.41;;;1.74;100.00
62712;BME280;48772;55.586;37.730;2022-11-14T03:06:25;99830.56;;;1.76;100.00
62712;BME280;48772;55.586;37.730;2022-11-14T03:09:09;99848.81;;;1.79;100.00
62712;BME280;48772;55.586;37.730;2022-11-14T03:11:53;99832.53;;;1.71;100.00
62712;BME280;48772;55.586;37.730;2022-11-14T03:14:37;99830.94;;;1.67;100.00
62712;BME280;48772;55.586;37.730;2022-11-14T03:17:21;99843.31;;;1.65;100.00
62712;BME280;48772;55.586;37.730;2022-11-14T03:20:07;99838.88;;;1.66;100.00
62712;BME280;48772;55.586;37.730;2022-11-14T03:22:51;99827.66;;;1.62;100.00
62712;BME280;48772;55.586;37.730;2022-11-14T03:25:35;99849.72;;;1.58;100.00
62712;BME280;48772;55.586;37.730;2022-11-14T03:28:19;99852.09;;;1.64;100.00
62712;BME280;48772;55.586;37.730;2022-11-14T03:31:04;99847.50;;;1.69;100.00
62712;BME280;48772;55.586;37.730;2022-11-14T03:33:49;99858.91;;;1.68;100.00
62712;BME280;48772;55.586;37.730;2022-11-14T03:36:34;99830.28;;;1.62;100.00
62712;BME280;48772;55.586;37.730;2022-11-14T03:39:18;99853.19;;;1.59;100.00
62712;BME280;48772;55.586;37.730;2022-11-14T03:42:02;99858.50;;;1.57;100.00
62712;BME280;48772;55.586;37.730;2022-11-14T03:44:46;99862.19;;;1.53;100.00
62712;BME280;48772;55.586;37.730;2022-11-14T03:47:30;99854.19;;;1.56;100.00
62712;BME280;48772;55.586;37.730;2022-11-14T03:50:14;99863.84;;;1.56;100.00
62712;BME280;48772;55.586;37.730;2022-11-14T03:52:58;99858.72;;;1.53;100.00
62712;BME280;48772;55.586;37.730;2022-11-14T03:55:42;99864.88;;;1.52;100.00
62712;BME280;48772;55.586;37.730;2022-11-14T03:58:27;99865.72;;;1.52;100.00
62712;BME280;48772;55.586;37.730;2022-11-14T04:01:11;99878.69;;;1.57;100.00
62712;BME280;48772;55.586;37.730;2022-11-14T04:03:55;99865.63;;;1.55;100.00
62712;BME280;48772;55.586;37.730;2022-11-14T04:06:43;99871.75;;;1.56;100.00
62712;BME280;48772;55.586;37.730;2022-11-14T04:09:27;99869.53;;;1.45;100.00
62712;BME280;48772;55.586;37.730;2022-11-14T04:12:13;99870.38;;;1.46;100.00
62712;BME280;48772;55.586;37.730;2022-11-14T04:14:57;99878.94;;;1.51;100.00
62712;BME280;48772;55.586;37.730;2022-11-14T04:17:41;99877.53;;;1.42;100.00
62712;BME280;48772;55.586;37.730;2022-11-14T04:20:25;99874.72;;;1.47;100.00
62712;BME280;48772;55.586;37.730;2022-11-14T04:23:09;99881.72;;;1.46;100.00
62712;BME280;48772;55.586;37.730;2022-11-14T04:25:57;99886.94;;;1.48;100.00
62712;BME280;48772;55.586;37.730;2022-11-14T04:28:43;99876.63;;;1.43;100.00
62712;BME280;48772;55.586;37.730;2022-11-14T04:31:27;99878.56;;;1.38;100.00
62712;BME280;48772;55.586;37.730;2022-11-14T04:34:12;99887.38;;;1.37;100.00
62712;BME280;48772;55.586;37.730;2022-11-14T04:36:56;99893.53;;;1.36;100.00
62712;BME280;48772;55.586;37.730;2022-11-14T04:39:40;99900.50;;;1.37;100.00
62712;BME280;48772;55.586;37.730;2022-11-14T04:42:24;99895.47;;;1.31;100.00
62712;BME280;48772;55.586;37.730;2022-11-14T04:45:09;99894.44;;;1.35;100.00
62712;BME280;48772;55.586;37.730;2022-11-14T04:47:53;99905.09;;;1.32;100.00
62712;BME280;48772;55.586;37.730;2022-11-14T04:50:38;99920.78;;;1.34;100.00
62712;BME280;48772;55.586;37.730;2022-11-14T04:53:22;99908.81;;;1.27;100.00
62712;BME280;48772;55.586;37.730;2022-11-14T04:56:07;99909.53;;;1.30;100.00
62712;BME280;48772;55.586;37.730;2022-11-14T04:58:52;99915.16;;;1.21;100.00
62712;BME280;48772;55.586;37.730;2022-11-14T05:01:36;99917.78;;;1.21;100.00
62712;BME280;48772;55.586;37.730;2022-11-14T05:04:21;99926.53;;;1.20;100.00
62712;BME280;48772;55.586;37.730;2022-11-14T05:07:08;99916.41;;;1.11;100.00
62712;BME280;48772;55.586;37.730;2022-11-14T05:09:52;99930.50;;;1.09;100.00
62712;BME280;48772;55.586;37.730;2022-11-14T05:12:38;99928.06;;;1.04;100.00
62712;BME280;48772;55.586;37.730;2022-11-14T05:15:22;99928.06;;;1.04;100.00
62712;BME280;48772;55.586;37.730;2022-11-14T05:18:06;99948.09;;;1.07;100.00
62712;BME280;48772;55.586;37.730;2022-11-14T05:20:51;99939.34;;;1.06;100.00
62712;BME280;48772;55.586;37.730;2022-11-14T05:23:35;99943.59;;;1.10;100.00
62712;BME280;48772;55.586;37.730;2022-11-14T05:26:19;99939.06;;;1.14;100.00
62712;BME280;48772;55.586;37.730;2022-11-14T05:29:04;99944.34;;;1.35;100.00
62712;BME280;48772;55.586;37.730;2022-11-14T05:31:48;99951.06;;;1.65;100.00
62712;BME280;48772;55.586;37.730;2022-11-14T05:34:33;99956.97;;;2.33;100.00
62712;BME280;48772;55.586;37.730;2022-11-14T05:37:44;99960.50;;;2.92;100.00
62712;BME280;48772;55.586;37.730;2022-11-14T05:40:36;99964.84;;;3.32;100.00
62712;BME280;48772;55.586;37.730;2022-11-14T05:44:03;99961.53;;;3.83;100.00
62712;BME280;48772;55.586;37.730;2022-11-14T05:46:49;99965.38;;;3.94;100.00
62712;BME280;48772;55.586;37.730;2022-11-14T05:49:34;99979.19;;;4.52;100.00
62712;BME280;48772;55.586;37.730;2022-11-14T05:52:19;99978.13;;;5.05;100.00
62712;BME280;48772;55.586;37.730;2022-11-14T05:55:07;99961.28;;;5.23;100.00
62712;BME280;48772;55.586;37.730;2022-11-14T05:57:57;99971.81;;;5.56;100.00
62712;BME280;48772;55.586;37.730;2022-11-14T06:00:42;99979.25;;;5.80;100.00
62712;BME280;48772;55.586;37.730;2022-11-14T06:03:31;99971.22;;;5.03;100.00
62712;BME280;48772;55.586;37.730;2022-11-14T06:06:17;99999.06;;;4.06;100.00
62712;BME280;48772;55.586;37.730;2022-11-14T06:09:03;100005.25;;;3.51;100.00
62712;BME280;48772;55.586;37.730;2022-11-14T06:11:48;100004.06;;;3.19;100.00
62712;BME280;48772;55.586;37.730;2022-11-14T06:14:32;100016.56;;;3.14;100.00
62712;BME280;48772;55.586;37.730;2022-11-14T06:17:16;100013.00;;;3.73;100.00
62712;BME280;48772;55.586;37.730;2022-11-14T06:20:04;100017.19;;;3.95;100.00
62712;BME280;48772;55.586;37.730;2022-11-14T06:22:55;100016.50;;;4.27;100.00
62712;BME280;48772;55.586;37.730;2022-11-14T06:25:40;100029.34;;;5.03;100.00
62712;BME280;48772;55.586;37.730;2022-11-14T06:28:24;100023.56;;;5.77;100.00
62712;BME280;48772;55.586;37.730;2022-11-14T06:31:09;100026.06;;;6.11;100.00
62712;BME280;48772;55.586;37.730;2022-11-14T06:33:53;100032.78;;;6.77;100.00
62712;BME280;48772;55.586;37.730;2022-11-14T06:36:37;100033.25;;;6.09;100.00
62712;BME280;48772;55.586;37.730;2022-11-14T06:39:22;100041.31;;;6.52;97.16
62712;BME280;48772;55.586;37.730;2022-11-14T06:42:06;100035.47;;;6.91;95.62
62712;BME280;48772;55.586;37.730;2022-11-14T06:44:51;100044.31;;;6.92;87.73
62712;BME280;48772;55.586;37.730;2022-11-14T06:47:35;100049.22;;;6.97;86.10
62712;BME280;48772;55.586;37.730;2022-11-14T06:50:20;100050.94;;;7.70;78.81
62712;BME280;48772;55.586;37.730;2022-11-14T06:53:05;100049.78;;;7.60;72.64
62712;BME280;48772;55.586;37.730;2022-11-14T06:58:44;100045.38;;;8.29;70.15
62712;BME280;48772;55.586;37.730;2022-11-14T07:01:29;100054.97;;;8.97;63.19
62712;BME280;48772;55.586;37.730;2022-11-14T07:04:14;100050.44;;;9.24;56.84
62712;BME280;48772;55.586;37.730;2022-11-14T07:06:59;100046.75;;;9.00;56.00
62712;BME280;48772;55.586;37.730;2022-11-14T07:09:43;100060.47;;;8.82;55.28
62712;BME280;48772;55.586;37.730;2022-11-14T07:12:29;100059.88;;;8.38;54.41
62712;BME280;48772;55.586;37.730;2022-11-14T07:15:19;100058.53;;;8.84;52.88
62712;BME280;48772;55.586;37.730;2022-11-14T07:18:03;100059.06;;;9.53;50.21
62712;BME280;48772;55.586;37.730;2022-11-14T07:20:48;100065.63;;;9.97;47.05
62712;BME280;48772;55.586;37.730;2022-11-14T07:23:32;100075.13;;;10.50;44.64
62712;BME280;48772;55.586;37.730;2022-11-14T07:26:17;100069.56;;;10.77;43.15
62712;BME280;48772;55.586;37.730;2022-11-14T07:29:02;100079.66;;;10.37;43.87
62712;BME280;48772;55.586;37.730;2022-11-14T07:31:46;100075.66;;;9.81;43.36
62712;BME280;48772;55.586;37.730;2022-11-14T07:34:31;100077.38;;;9.82;43.63
62712;BME280;48772;55.586;37.730;2022-11-14T07:37:16;100082.03;;;10.17;43.56
62712;BME280;48772;55.586;37.730;2022-11-14T07:40:00;100083.84;;;10.99;41.76
62712;BME280;48772;55.586;37.730;2022-11-14T07:42:44;100086.28;;;11.26;39.64
62712;BME280;48772;55.586;37.730;2022-11-14T07:45:29;100087.91;;;11.50;38.54
62712;BME280;48772;55.586;37.730;2022-11-14T07:48:13;100091.06;;;11.55;38.01
62712;BME280;48772;55.586;37.730;2022-11-14T07:50:57;100089.16;;;11.23;38.06
62712;BME280;48772;55.586;37.730;2022-11-14T07:53:42;100092.66;;;11.58;37.89
62712;BME280;48772;55.586;37.730;2022-11-14T07:56:27;100101.22;;;11.85;37.51
62712;BME280;48772;55.586;37.730;2022-11-14T07:59:12;100098.69;;;11.83;36.83
62712;BME280;48772;55.586;37.730;2022-11-14T08:01:56;100089.88;;;11.59;36.53
62712;BME280;48772;55.586;37.730;2022-11-14T08:04:40;100093.97;;;12.09;35.91
62712;BME280;48772;55.586;37.730;2022-11-14T08:07:24;100101.22;;;12.40;34.82
62712;BME280;48772;55.586;37.730;2022-11-14T08:10:09;100096.38;;;12.23;34.33
62712;BME280;48772;55.586;37.730;2022-11-14T08:12:58;100092.69;;;12.57;34.13
62712;BME280;48772;55.586;37.730;2022-11-14T08:15:42;100094.28;;;12.59;33.86
62712;BME280;48772;55.586;37.730;2022-11-14T08:18:27;100093.38;;;12.70;33.64
62712;BME280;48772;55.586;37.730;2022-11-14T08:21:11;100101.22;;;12.51;33.63
62712;BME280;48772;55.586;37.730;2022-11-14T08:23:55;100094.72;;;12.64;33.36
62712;BME280;48772;55.586;37.730;2022-11-14T08:26:39;100091.63;;;12.48;34.01
62712;BME280;48772;55.586;37.730;2022-11-14T08:29:23;100099.28;;;12.42;33.67
62712;BME280;48772;55.586;37.730;2022-11-14T08:32:07;100106.13;;;12.13;33.12
62712;BME280;48772;55.586;37.730;2022-11-14T08:34:53;100105.38;;;12.22;33.38
62712;BME280;48772;55.586;37.730;2022-11-14T08:37:37;100117.28;;;12.07;32.80
62712;BME280;48772;55.586;37.730;2022-11-14T08:40:21;100107.56;;;12.17;32.86
62712;BME280;48772;55.586;37.730;2022-11-14T08:43:06;100113.13;;;12.58;32.55
62712;BME280;48772;55.586;37.730;2022-11-14T08:45:53;100110.28;;;12.81;31.84
62712;BME280;48772;55.586;37.730;2022-11-14T08:48:39;100108.44;;;13.24;31.47
62712;BME280;48772;55.586;37.730;2022-11-14T08:51:28;100105.78;;;13.45;31.00
62712;BME280;48772;55.586;37.730;2022-11-14T08:54:13;100105.59;;;13.37;31.28
62712;BME280;48772;55.586;37.730;2022-11-14T08:56:58;100110.59;;;13.51;30.84
62712;BME280;48772;55.586;37.730;2022-11-14T08:59:43;100101.66;;;14.12;30.70
62712;BME280;48772;55.586;37.730;2022-11-14T09:02:31;100106.84;;;14.04;29.49
62712;BME280;48772;55.586;37.730;2022-11-14T09:05:23;100108.94;;;14.01;29.49
62712;BME280;48772;55.586;37.730;2022-11-14T09:08:08;100107.09;;;14.22;29.45
62712;BME280;48772;55.586;37.730;2022-11-14T09:10:53;100104.00;;;14.26;29.03
62712;BME280;48772;55.586;37.730;2022-11-14T09:13:40;100106.84;;;14.04;29.47
62712;BME280;48772;55.586;37.730;2022-11-14T09:16:24;100114.16;;;14.02;29.40
62712;BME280;48772;55.586;37.730;2022-11-14T09:19:10;100105.72;;;14.27;29.12
62712;BME280;48772;55.586;37.730;2022-11-14T09:21:57;100105.03;;;13.84;29.23
62712;BME280;48772;55.586;37.730;2022-11-14T09:24:42;100109.75;;;14.52;29.27
62712;BME280;48772;55.586;37.730;2022-11-14T09:27:32;100113.00;;;14.16;29.12
62712;BME280;48772;55.586;37.730;2022-11-14T09:30:16;100108.25;;;14.29;29.01
62712;BME280;48772;55.586;37.730;2022-11-14T09:33:05;100110.50;;;14.24;29.27
62712;BME280;48772;55.586;37.730;2022-11-14T09:35:55;100109.94;;;14.60;28.61
62712;BME280;48772;55.586;37.730;2022-11-14T09:38:43;100108.13;;;14.30;28.49
62712;BME280;48772;55.586;37.730;2022-11-14T09:47:19;100109.19;;;14.48;28.48
62712;BME280;48772;55.586;37.730;2022-11-14T09:50:13;100118.22;;;14.47;28.83
62712;BME280;48772;55.586;37.730;2022-11-14T09:53:16;100115.31;;;14.69;28.95
62712;BME280;48772;55.586;37.730;2022-11-14T09:56:23;100118.53;;;14.54;29.10
62712;BME280;48772;55.586;37.730;2022-11-14T09:59:11;100113.50;;;14.89;28.53
62712;BME280;48772;55.586;37.730;2022-11-14T10:04:53;100120.97;;;14.66;28.72
62712;BME280;48772;55.586;37.730;2022-11-14T10:10:47;100109.50;;;13.95;29.79
62712;BME280;48772;55.586;37.730;2022-11-14T10:13:55;100109.97;;;14.39;29.51
62712;BME280;48772;55.586;37.730;2022-11-14T10:22:49;100110.56;;;15.01;28.61
62712;BME280;48772;55.586;37.730;2022-11-14T10:25:54;100095.63;;;15.46;28.34
62712;BME280;48772;55.586;37.730;2022-11-14T10:39:21;100079.75;;;15.34;28.20
62712;BME280;48772;55.586;37.730;2022-11-14T10:45:39;100090.63;;;14.94;28.92
62712;BME280;48772;55.586;37.730;2022-11-14T10:48:33;100089.66;;;15.14;28.31
62712;BME280;48772;55.586;37.730;2022-11-14T10:51:32;100080.44;;;15.26;28.38
62712;BME280;48772;55.586;37.730;2022-11-14T10:54:26;100088.09;;;15.21;28.25
62712;BME280;48772;55.586;37.730;2022-11-14T10:57:17;100081.00;;;15.11;28.04
62712;BME280;48772;55.586;37.730;2022-11-14T11:00:49;100086.09;;;15.23;28.11
62712;BME280;48772;55.586;37.730;2022-11-14T11:03:17;100083.28;;;14.87;28.59
62712;BME280;48772;55.586;37.730;2022-11-14T11:06:04;100076.97;;;14.48;29.32
62712;BME280;48772;55.586;37.730;2022-11-14T11:08:49;100076.97;;;14.48;29.14
62712;BME280;48772;55.586;37.730;2022-11-14T11:25:21;100091.91;;;13.81;30.10
62712;BME280;48772;55.586;37.730;2022-11-14T11:28:13;100091.25;;;13.27;30.18
62712;BME280;48772;55.586;37.730;2022-11-14T11:31:02;100093.81;;;13.28;30.93
62712;BME280;48772;55.586;37.730;2022-11-14T11:33:50;100088.34;;;13.51;30.71
62712;BME280;48772;55.586;37.730;2022-11-14T11:36:41;100091.66;;;13.43;30.58
62712;BME280;48772;55.586;37.730;2022-11-14T11:39:32;100092.69;;;13.31;31.45
62712;BME280;48772;55.586;37.730;2022-11-14T11:42:22;100091.50;;;12.92;31.68
62712;BME280;48772;55.586;37.730;2022-11-14T11:45:13;100099.59;;;12.70;32.42
62712;BME280;48772;55.586;37.730;2022-11-14T11:48:12;100100.00;;;12.44;32.99
62712;BME280;48772;55.586;37.730;2022-11-14T11:50:58;100101.00;;;12.85;32.43
62712;BME280;48772;55.586;37.730;2022-11-14T11:53:49;100096.25;;;12.89;32.24
62712;BME280;48772;55.586;37.730;2022-11-14T11:56:40;100102.69;;;12.44;33.38
62712;BME280;48772;55.586;37.730;2022-11-14T11:59:53;100104.13;;;11.71;34.84
62712;BME280;48772;55.586;37.730;2022-11-14T12:02:41;100099.66;;;11.93;34.78
62712;BME280;48772;55.586;37.730;2022-11-14T12:11:42;100112.19;;;11.58;35.39
62712;BME280;48772;55.586;37.730;2022-11-14T12:17:25;100100.09;;;11.65;36.07
62712;BME280;48772;55.586;37.730;2022-11-14T12:32:17;100116.03;;;10.62;36.71
62712;BME280;48772;55.586;37.730;2022-11-14T12:35:13;100110.69;;;10.62;36.91
62712;BME280;48772;55.586;37.730;2022-11-14T12:38:24;100110.19;;;10.08;37.37
62712;BME280;48772;55.586;37.730;2022-11-14T12:41:25;100115.31;;;10.11;37.63
62712;BME280;48772;55.586;37.730;2022-11-14T12:44:18;100113.28;;;10.02;37.94
62712;BME280;48772;55.586;37.730;2022-11-14T12:47:22;100123.59;;;9.81;39.33
62712;BME280;48772;55.586;37.730;2022-11-14T12:50:27;100110.63;;;10.02;38.98
62712;BME280;48772;55.586;37.730;2022-11-14T12:53:57;100109.97;;;9.98;39.60
62712;BME280;48772;55.586;37.730;2022-11-14T13:10:28;100117.47;;;8.37;51.25
62712;BME280;48772;55.586;37.730;2022-11-14T13:13:14;100120.88;;;8.11;54.15
62712;BME280;48772;55.586;37.730;2022-11-14T13:16:24;100118.72;;;7.76;57.75
62712;BME280;48772;55.586;37.730;2022-11-14T13:19:28;100116.28;;;7.29;62.53
62712;BME280;48772;55.586;37.730;2022-11-14T13:22:43;100119.19;;;6.95;67.99
62712;BME280;48772;55.586;37.730;2022-11-14T13:28:49;100113.78;;;6.20;76.45
62712;BME280;48772;55.586;37.730;2022-11-14T13:40:17;100125.50;;;5.34;91.89
62712;BME280;48772;55.586;37.730;2022-11-14T13:43:07;100120.66;;;5.25;90.71
62712;BME280;48772;55.586;37.730;2022-11-14T13:46:44;100129.44;;;5.09;93.67
62712;BME280;48772;55.586;37.730;2022-11-14T13:52:03;100125.00;;;4.92;97.77
62712;BME280;48772;55.586;37.730;2022-11-14T13:54:48;100123.59;;;4.68;100.00
62712;BME280;48772;55.586;37.730;2022-11-14T13:57:44;100125.91;;;4.74;100.00
62712;BME280;48772;55.586;37.730;2022-11-14T14:00:47;100127.38;;;4.63;100.00
62712;BME280;48772;55.586;37.730;2022-11-14T14:09:30;100120.28;;;4.46;100.00
62712;BME280;48772;55.586;37.730;2022-11-14T14:15:15;100119.88;;;4.37;100.00
62712;BME280;48772;55.586;37.730;2022-11-14T14:18:05;100122.09;;;4.27;100.00
62712;BME280;48772;55.586;37.730;2022-11-14T14:20:57;100132.13;;;4.19;100.00
62712;BME280;48772;55.586;37.730;2022-11-14T14:23:53;100111.31;;;3.95;100.00
62712;BME280;48772;55.586;37.730;2022-11-14T14:35:56;100130.50;;;3.98;100.00
62712;BME280;48772;55.586;37.730;2022-11-14T14:38:41;100135.91;;;3.95;100.00
62712;BME280;48772;55.586;37.730;2022-11-14T14:41:31;100133.16;;;3.98;100.00
62712;BME280;48772;55.586;37.730;2022-11-14T14:50:22;100123.44;;;3.80;100.00
62712;BME280;48772;55.586;37.730;2022-11-14T14:53:17;100122.19;;;3.69;100.00
62712;BME280;48772;55.586;37.730;2022-11-14T14:56:04;100137.00;;;3.71;100.00
62712;BME280;48772;55.586;37.730;2022-11-14T14:58:54;100126.63;;;3.87;100.00
62712;BME280;48772;55.586;37.730;2022-11-14T15:01:42;100124.81;;;3.89;100.00
62712;BME280;48772;55.586;37.730;2022-11-14T15:04:27;100120.78;;;3.80;100.00
62712;BME280;48772;55.586;37.730;2022-11-14T15:07:21;100123.38;;;3.82;100.00
62712;BME280;48772;55.586;37.730;2022-11-14T15:10:06;100121.94;;;3.75;100.00
62712;BME280;48772;55.586;37.730;2022-11-14T15:12:51;100127.59;;;3.66;100.00
62712;BME280;48772;55.586;37.730;2022-11-14T15:15:37;100117.97;;;3.65;100.00
62712;BME280;48772;55.586;37.730;2022-11-14T15:18:22;100122.06;;;3.72;100.00
62712;BME280;48772;55.586;37.730;2022-11-14T15:24:16;100130.66;;;3.57;100.00
62712;BME280;48772;55.586;37.730;2022-11-14T15:27:02;100125.38;;;3.57;100.00
62712;BME280;48772;55.586;37.730;2022-11-14T15:29:51;100138.00;;;3.69;100.00
62712;BME280;48772;55.586;37.730;2022-11-14T15:32:37;100132.75;;;3.69;100.00
62712;BME280;48772;55.586;37.730;2022-11-14T15:35:31;100125.56;;;3.72;100.00
62712;BME280;48772;55.586;37.730;2022-11-14T15:38:18;100114.16;;;3.72;100.00
62712;BME280;48772;55.586;37.730;2022-11-14T15:44:02;100116.75;;;3.53;100.00
62712;BME280;48772;55.586;37.730;2022-11-14T15:46:48;100121.22;;;3.51;100.00
62712;BME280;48772;55.586;37.730;2022-11-14T15:49:33;100132.03;;;3.45;100.00
62712;BME280;48772;55.586;37.730;2022-11-14T15:52:41;100122.16;;;3.50;100.00
62712;BME280;48772;55.586;37.730;2022-11-14T15:55:32;100120.75;;;3.62;100.00
62712;BME280;48772;55.586;37.730;2022-11-14T15:58:20;100121.47;;;3.65;100.00
62712;BME280;48772;55.586;37.730;2022-11-14T16:01:07;100126.84;;;3.43;100.00
62712;BME280;48772;55.586;37.730;2022-11-14T16:03:55;100124.56;;;3.54;100.00
62712;BME280;48772;55.586;37.730;2022-11-14T16:06:50;100127.34;;;3.72;100.00
62712;BME280;48772;55.586;37.730;2022-11-14T16:09:40;100124.56;;;3.75;100.00
62712;BME280;48772;55.586;37.730;2022-11-14T16:12:24;100123.19;;;3.66;100.00
62712;BME280;48772;55.586;37.730;2022-11-14T16:15:09;100121.44;;;3.46;100.00
62712;BME280;48772;55.586;37.730;2022-11-14T16:17:54;100119.44;;;3.51;100.00
62712;BME280;48772;55.586;37.730;2022-11-14T16:20:38;100123.34;;;3.43;100.00
62712;BME280;48772;55.586;37.730;2022-11-14T16:23:29;100123.88;;;3.51;100.00
62712;BME280;48772;55.586;37.730;2022-11-14T16:26:18;100126.19;;;3.38;100.00
62712;BME280;48772;55.586;37.730;2022-11-14T16:29:02;100126.69;;;3.46;100.00
62712;BME280;48772;55.586;37.730;2022-11-14T16:31:48;100117.63;;;3.33;100.00
62712;BME280;48772;55.586;37.730;2022-11-14T16:34:40;100118.41;;;3.35;100.00
62712;BME280;48772;55.586;37.730;2022-11-14T16:37:41;100114.72;;;3.39;100.00
62712;BME280;48772;55.586;37.730;2022-11-14T16:40:56;100109.88;;;3.49;100.00
62712;BME280;48772;55.586;37.730;2022-11-14T16:43:43;100107.66;;;3.40;100.00